sensor_id;sensor_type;location;lat;lon;timestamp;P1;durP1;ratioP1;P2;durP2;ratioP2
4833;SDS011;12895;51.064;7.028;2023-11-19T00:01:52;2.27;;;2.07;;
4833;SDS011;12895;51.064;7.028;2023-11-19T00:04:37;2.40;;;2.20;;
4833;SDS011;12895;51.064;7.028;2023-11-19T00:07:24;2.07;;;1.70;;
4833;SDS011;12895;51.064;7.028;2023-11-19T00:10:10;2.30;;;2.10;;
4833;SDS011;12895;51.064;7.028;2023-11-19T00:12:56;1.87;;;1.40;;
4833;SDS011;12895;51.064;7.028;2023-11-19T00:15:41;2.10;;;1.70;;
4833;SDS011;12895;51.064;7.028;2023-11-19T00:18:26;1.80;;;1.70;;
4833;SDS011;12895;51.064;7.028;2023-11-19T00:21:12;1.80;;;1.70;;
4833;SDS011;12895;51.064;7.028;2023-11-19T00:23:58;3.83;;;1.70;;
4833;SDS011;12895;51.064;7.028;2023-11-19T00:26:43;2.00;;;1.90;;
4833;SDS011;12895;51.064;7.028;2023-11-19T00:29:29;1.90;;;1.77;;
4833;SDS011;12895;51.064;7.028;2023-11-19T00:32:14;1.87;;;1.77;;
4833;SDS011;12895;51.064;7.028;2023-11-19T00:34:59;2.13;;;1.93;;
4833;SDS011;12895;51.064;7.028;2023-11-19T00:37:44;2.00;;;1.90;;
4833;SDS011;12895;51.064;7.028;2023-11-19T00:40:33;1.93;;;1.83;;
4833;SDS011;12895;51.064;7.028;2023-11-19T00:43:18;2.03;;;1.87;;
4833;SDS011;12895;51.064;7.028;2023-11-19T00:46:06;1.93;;;1.73;;
4833;SDS011;12895;51.064;7.028;2023-11-19T00:48:52;2.27;;;1.60;;
4833;SDS011;12895;51.064;7.028;2023-11-19T00:51:37;1.70;;;1.60;;
4833;SDS011;12895;51.064;7.028;2023-11-19T00:54:23;1.90;;;1.80;;
4833;SDS011;12895;51.064;7.028;2023-11-19T00:57:11;1.83;;;1.73;;
4833;SDS011;12895;51.064;7.028;2023-11-19T00:59:56;2.30;;;2.10;;
4833;SDS011;12895;51.064;7.028;2023-11-19T01:02:41;2.20;;;1.73;;
4833;SDS011;12895;51.064;7.028;2023-11-19T01:05:26;1.70;;;1.60;;
4833;SDS011;12895;51.064;7.028;2023-11-19T01:08:12;1.80;;;1.70;;
4833;SDS011;12895;51.064;7.028;2023-11-19T01:10:57;2.70;;;2.10;;
4833;SDS011;12895;51.064;7.028;2023-11-19T01:13:45;1.90;;;1.80;;
4833;SDS011;12895;51.064;7.028;2023-11-19T01:16:30;1.80;;;1.70;;
4833;SDS011;12895;51.064;7.028;2023-11-19T01:19:16;2.33;;;2.00;;
4833;SDS011;12895;51.064;7.028;2023-11-19T01:22:01;2.70;;;2.50;;
4833;SDS011;12895;51.064;7.028;2023-11-19T01:24:46;2.33;;;2.13;;
4833;SDS011;12895;51.064;7.028;2023-11-19T01:27:31;2.80;;;2.23;;
4833;SDS011;12895;51.064;7.028;2023-11-19T01:30:19;3.50;;;2.43;;
4833;SDS011;12895;51.064;7.028;2023-11-19T01:33:06;2.13;;;2.03;;
4833;SDS011;12895;51.064;7.028;2023-11-19T01:35:51;2.63;;;2.43;;
4833;SDS011;12895;51.064;7.028;2023-11-19T01:38:37;2.20;;;2.10;;
4833;SDS011;12895;51.064;7.028;2023-11-19T01:41:22;2.40;;;2.20;;
4833;SDS011;12895;51.064;7.028;2023-11-19T01:44:09;2.00;;;1.90;;
4833;SDS011;12895;51.064;7.028;2023-11-19T01:46:59;3.90;;;2.60;;
4833;SDS011;12895;51.064;7.028;2023-11-19T01:49:48;3.07;;;2.70;;
4833;SDS011;12895;51.064;7.028;2023-11-19T01:52:34;3.13;;;2.63;;
4833;SDS011;12895;51.064;7.028;2023-11-19T01:55:21;3.50;;;2.97;;
4833;SDS011;12895;51.064;7.028;2023-11-19T01:58:06;3.67;;;3.30;;
4833;SDS011;12895;51.064;7.028;2023-11-19T02:00:53;3.83;;;3.53;;
4833;SDS011;12895;51.064;7.028;2023-11-19T02:03:40;3.50;;;3.20;;
4833;SDS011;12895;51.064;7.028;2023-11-19T02:06:25;3.30;;;3.10;;
4833;SDS011;12895;51.064;7.028;2023-11-19T02:09:11;4.13;;;3.73;;
4833;SDS011;12895;51.064;7.028;2023-11-19T02:12:03;3.93;;;3.63;;
4833;SDS011;12895;51.064;7.028;2023-11-19T02:14:48;4.27;;;3.87;;
4833;SDS011;12895;51.064;7.028;2023-11-19T02:17:34;4.73;;;4.43;;
4833;SDS011;12895;51.064;7.028;2023-11-19T02:20:25;5.20;;;4.70;;
4833;SDS011;12895;51.064;7.028;2023-11-19T02:23:11;5.00;;;4.60;;
4833;SDS011;12895;51.064;7.028;2023-11-19T02:26:01;5.73;;;5.23;;
4833;SDS011;12895;51.064;7.028;2023-11-19T02:28:48;5.60;;;5.20;;
4833;SDS011;12895;51.064;7.028;2023-11-19T02:31:33;6.70;;;5.73;;
4833;SDS011;12895;51.064;7.028;2023-11-19T02:34:19;6.57;;;5.87;;
4833;SDS011;12895;51.064;7.028;2023-11-19T02:37:05;6.67;;;4.90;;
4833;SDS011;12895;51.064;7.028;2023-11-19T02:39:52;5.83;;;3.53;;
4833;SDS011;12895;51.064;7.028;2023-11-19T02:42:37;5.23;;;4.23;;
4833;SDS011;12895;51.064;7.028;2023-11-19T02:45:23;4.80;;;4.40;;
4833;SDS011;12895;51.064;7.028;2023-11-19T02:48:08;4.50;;;4.20;;
4833;SDS011;12895;51.064;7.028;2023-11-19T02:50:53;5.27;;;4.13;;
4833;SDS011;12895;51.064;7.028;2023-11-19T02:53:38;3.70;;;3.40;;
4833;SDS011;12895;51.064;7.028;2023-11-19T02:56:26;6.50;;;4.03;;
4833;SDS011;12895;51.064;7.028;2023-11-19T02:59:13;4.80;;;3.97;;
4833;SDS011;12895;51.064;7.028;2023-11-19T03:02:12;6.10;;;3.70;;
4833;SDS011;12895;51.064;7.028;2023-11-19T03:04:59;5.00;;;4.50;;
4833;SDS011;12895;51.064;7.028;2023-11-19T03:07:46;5.43;;;4.30;;
4833;SDS011;12895;51.064;7.028;2023-11-19T03:10:31;4.40;;;3.90;;
4833;SDS011;12895;51.064;7.028;2023-11-19T03:13:18;4.43;;;3.53;;
4833;SDS011;12895;51.064;7.028;2023-11-19T03:16:03;7.33;;;4.00;;
4833;SDS011;12895;51.064;7.028;2023-11-19T03:18:50;4.77;;;4.37;;
4833;SDS011;12895;51.064;7.028;2023-11-19T03:21:35;6.17;;;3.70;;
4833;SDS011;12895;51.064;7.028;2023-11-19T03:24:20;7.27;;;3.93;;
4833;SDS011;12895;51.064;7.028;2023-11-19T03:27:06;4.40;;;4.00;;
4833;SDS011;12895;51.064;7.028;2023-11-19T03:29:51;7.33;;;3.90;;
4833;SDS011;12895;51.064;7.028;2023-11-19T03:32:36;4.77;;;3.57;;
4833;SDS011;12895;51.064;7.028;2023-11-19T03:35:24;6.60;;;4.03;;
4833;SDS011;12895;51.064;7.028;2023-11-19T03:38:09;7.00;;;3.60;;
4833;SDS011;12895;51.064;7.028;2023-11-19T03:40:55;7.50;;;4.17;;
4833;SDS011;12895;51.064;7.028;2023-11-19T03:43:40;6.40;;;4.03;;
4833;SDS011;12895;51.064;7.028;2023-11-19T03:46:25;10.40;;;4.67;;
4833;SDS011;12895;51.064;7.028;2023-11-19T03:49:11;10.17;;;5.43;;
4833;SDS011;12895;51.064;7.028;2023-11-19T03:51:57;8.33;;;4.60;;
4833;SDS011;12895;51.064;7.028;2023-11-19T03:54:43;10.30;;;4.33;;
4833;SDS011;12895;51.064;7.028;2023-11-19T03:57:29;10.23;;;4.50;;
4833;SDS011;12895;51.064;7.028;2023-11-19T04:00:15;12.90;;;4.23;;
4833;SDS011;12895;51.064;7.028;2023-11-19T04:03:06;19.67;;;4.57;;
4833;SDS011;12895;51.064;7.028;2023-11-19T04:05:51;15.40;;;4.20;;
4833;SDS011;12895;51.064;7.028;2023-11-19T04:08:37;15.90;;;4.27;;
4833;SDS011;12895;51.064;7.028;2023-11-19T04:11:23;15.40;;;5.00;;
4833;SDS011;12895;51.064;7.028;2023-11-19T04:14:08;14.80;;;4.83;;
4833;SDS011;12895;51.064;7.028;2023-11-19T04:16:53;7.97;;;3.53;;
4833;SDS011;12895;51.064;7.028;2023-11-19T04:19:39;14.20;;;4.17;;
4833;SDS011;12895;51.064;7.028;2023-11-19T04:22:25;9.80;;;3.90;;
4833;SDS011;12895;51.064;7.028;2023-11-19T04:25:11;9.60;;;3.80;;
4833;SDS011;12895;51.064;7.028;2023-11-19T04:27:58;12.97;;;4.37;;
4833;SDS011;12895;51.064;7.028;2023-11-19T04:30:43;11.43;;;4.10;;
4833;SDS011;12895;51.064;7.028;2023-11-19T04:33:28;12.10;;;4.60;;
4833;SDS011;12895;51.064;7.028;2023-11-19T04:36:13;16.13;;;5.03;;
4833;SDS011;12895;51.064;7.028;2023-11-19T04:39:03;9.37;;;4.27;;
4833;SDS011;12895;51.064;7.028;2023-11-19T04:41:54;13.87;;;4.13;;
4833;SDS011;12895;51.064;7.028;2023-11-19T04:44:39;13.00;;;3.93;;
4833;SDS011;12895;51.064;7.028;2023-11-19T04:47:24;15.20;;;3.93;;
4833;SDS011;12895;51.064;7.028;2023-11-19T04:50:10;7.23;;;3.70;;
4833;SDS011;12895;51.064;7.028;2023-11-19T04:52:55;10.50;;;3.67;;
4833;SDS011;12895;51.064;7.028;2023-11-19T04:55:41;12.73;;;4.13;;
4833;SDS011;12895;51.064;7.028;2023-11-19T04:58:29;13.10;;;3.63;;
4833;SDS011;12895;51.064;7.028;2023-11-19T05:01:14;14.77;;;4.83;;
4833;SDS011;12895;51.064;7.028;2023-11-19T05:04:01;11.90;;;4.10;;
4833;SDS011;12895;51.064;7.028;2023-11-19T05:06:46;13.00;;;3.57;;
4833;SDS011;12895;51.064;7.028;2023-11-19T05:09:32;15.57;;;3.90;;
4833;SDS011;12895;51.064;7.028;2023-11-19T05:12:17;12.13;;;3.23;;
4833;SDS011;12895;51.064;7.028;2023-11-19T05:15:04;17.73;;;4.17;;
4833;SDS011;12895;51.064;7.028;2023-11-19T05:17:49;10.60;;;4.07;;
4833;SDS011;12895;51.064;7.028;2023-11-19T05:20:35;15.20;;;4.57;;
4833;SDS011;12895;51.064;7.028;2023-11-19T05:23:20;14.43;;;4.10;;
4833;SDS011;12895;51.064;7.028;2023-11-19T05:26:05;15.70;;;3.57;;
4833;SDS011;12895;51.064;7.028;2023-11-19T05:28:51;13.40;;;3.90;;
4833;SDS011;12895;51.064;7.028;2023-11-19T05:31:37;16.57;;;4.77;;
4833;SDS011;12895;51.064;7.028;2023-11-19T05:34:23;15.10;;;3.80;;
4833;SDS011;12895;51.064;7.028;2023-11-19T05:37:08;14.40;;;3.90;;
4833;SDS011;12895;51.064;7.028;2023-11-19T05:39:54;16.93;;;3.80;;
4833;SDS011;12895;51.064;7.028;2023-11-19T05:42:40;17.57;;;3.93;;
4833;SDS011;12895;51.064;7.028;2023-11-19T05:45:25;8.90;;;3.07;;
4833;SDS011;12895;51.064;7.028;2023-11-19T05:48:11;9.67;;;3.60;;
4833;SDS011;12895;51.064;7.028;2023-11-19T05:50:56;13.13;;;3.87;;
4833;SDS011;12895;51.064;7.028;2023-11-19T05:53:42;10.83;;;3.50;;
4833;SDS011;12895;51.064;7.028;2023-11-19T05:56:27;16.10;;;4.20;;
4833;SDS011;12895;51.064;7.028;2023-11-19T05:59:16;15.30;;;4.03;;
4833;SDS011;12895;51.064;7.028;2023-11-19T06:02:02;12.23;;;3.90;;
4833;SDS011;12895;51.064;7.028;2023-11-19T06:04:48;13.13;;;4.03;;
4833;SDS011;12895;51.064;7.028;2023-11-19T06:07:33;17.20;;;3.70;;
4833;SDS011;12895;51.064;7.028;2023-11-19T06:10:19;14.30;;;3.60;;
4833;SDS011;12895;51.064;7.028;2023-11-19T06:13:04;14.63;;;3.57;;
4833;SDS011;12895;51.064;7.028;2023-11-19T06:15:50;16.27;;;3.93;;
4833;SDS011;12895;51.064;7.028;2023-11-19T06:18:36;18.23;;;3.73;;
4833;SDS011;12895;51.064;7.028;2023-11-19T06:21:22;15.13;;;4.17;;
4833;SDS011;12895;51.064;7.028;2023-11-19T06:24:09;17.47;;;3.93;;
4833;SDS011;12895;51.064;7.028;2023-11-19T06:26:54;13.47;;;3.90;;
4833;SDS011;12895;51.064;7.028;2023-11-19T06:29:39;22.07;;;4.60;;
4833;SDS011;12895;51.064;7.028;2023-11-19T06:32:25;18.83;;;4.33;;
4833;SDS011;12895;51.064;7.028;2023-11-19T06:35:10;14.33;;;3.30;;
4833;SDS011;12895;51.064;7.028;2023-11-19T06:37:57;15.53;;;4.33;;
4833;SDS011;12895;51.064;7.028;2023-11-19T06:40:43;17.00;;;4.40;;
4833;SDS011;12895;51.064;7.028;2023-11-19T06:43:28;13.13;;;4.33;;
4833;SDS011;12895;51.064;7.028;2023-11-19T06:46:16;11.73;;;3.13;;
4833;SDS011;12895;51.064;7.028;2023-11-19T06:49:02;15.90;;;3.70;;
4833;SDS011;12895;51.064;7.028;2023-11-19T06:51:47;13.73;;;3.63;;
4833;SDS011;12895;51.064;7.028;2023-11-19T06:54:34;16.00;;;3.90;;
4833;SDS011;12895;51.064;7.028;2023-11-19T06:57:19;21.10;;;3.93;;
4833;SDS011;12895;51.064;7.028;2023-11-19T07:00:06;15.57;;;3.87;;
4833;SDS011;12895;51.064;7.028;2023-11-19T07:02:52;14.03;;;4.40;;
4833;SDS011;12895;51.064;7.028;2023-11-19T07:05:37;21.73;;;5.17;;
4833;SDS011;12895;51.064;7.028;2023-11-19T07:08:22;20.00;;;4.70;;
4833;SDS011;12895;51.064;7.028;2023-11-19T07:11:09;17.67;;;4.50;;
4833;SDS011;12895;51.064;7.028;2023-11-19T07:13:55;15.00;;;4.37;;
4833;SDS011;12895;51.064;7.028;2023-11-19T07:16:40;17.60;;;3.80;;
4833;SDS011;12895;51.064;7.028;2023-11-19T07:19:25;15.00;;;3.43;;
4833;SDS011;12895;51.064;7.028;2023-11-19T07:22:11;18.43;;;4.03;;
4833;SDS011;12895;51.064;7.028;2023-11-19T07:24:56;20.93;;;4.67;;
4833;SDS011;12895;51.064;7.028;2023-11-19T07:27:43;15.57;;;3.77;;
4833;SDS011;12895;51.064;7.028;2023-11-19T07:30:28;27.13;;;5.10;;
4833;SDS011;12895;51.064;7.028;2023-11-19T07:33:14;16.20;;;4.67;;
4833;SDS011;12895;51.064;7.028;2023-11-19T07:35:59;15.60;;;4.10;;
4833;SDS011;12895;51.064;7.028;2023-11-19T07:38:45;18.13;;;3.67;;
4833;SDS011;12895;51.064;7.028;2023-11-19T07:41:30;12.17;;;4.63;;
4833;SDS011;12895;51.064;7.028;2023-11-19T07:44:16;19.20;;;4.67;;
4833;SDS011;12895;51.064;7.028;2023-11-19T07:47:02;15.77;;;3.67;;
4833;SDS011;12895;51.064;7.028;2023-11-19T07:49:47;14.87;;;3.50;;
4833;SDS011;12895;51.064;7.028;2023-11-19T07:52:32;17.87;;;3.90;;
4833;SDS011;12895;51.064;7.028;2023-11-19T07:55:17;17.90;;;4.37;;
4833;SDS011;12895;51.064;7.028;2023-11-19T07:58:03;20.30;;;4.20;;
4833;SDS011;12895;51.064;7.028;2023-11-19T08:00:49;18.70;;;4.90;;
4833;SDS011;12895;51.064;7.028;2023-11-19T08:03:35;18.50;;;4.53;;
4833;SDS011;12895;51.064;7.028;2023-11-19T08:06:20;13.63;;;3.77;;
4833;SDS011;12895;51.064;7.028;2023-11-19T08:09:06;19.97;;;4.17;;
4833;SDS011;12895;51.064;7.028;2023-11-19T08:11:57;21.13;;;4.53;;
4833;SDS011;12895;51.064;7.028;2023-11-19T08:14:43;21.90;;;5.23;;
4833;SDS011;12895;51.064;7.028;2023-11-19T08:17:29;16.33;;;4.43;;
4833;SDS011;12895;51.064;7.028;2023-11-19T08:20:14;17.43;;;4.30;;
4833;SDS011;12895;51.064;7.028;2023-11-19T08:23:00;17.37;;;3.63;;
4833;SDS011;12895;51.064;7.028;2023-11-19T08:25:45;12.63;;;4.50;;
4833;SDS011;12895;51.064;7.028;2023-11-19T08:28:30;14.50;;;4.17;;
4833;SDS011;12895;51.064;7.028;2023-11-19T08:31:18;18.50;;;4.53;;
4833;SDS011;12895;51.064;7.028;2023-11-19T08:34:05;14.00;;;4.83;;
4833;SDS011;12895;51.064;7.028;2023-11-19T08:36:52;17.13;;;3.70;;
4833;SDS011;12895;51.064;7.028;2023-11-19T08:39:38;17.37;;;4.37;;
4833;SDS011;12895;51.064;7.028;2023-11-19T08:42:23;20.53;;;4.70;;
4833;SDS011;12895;51.064;7.028;2023-11-19T08:45:08;16.80;;;4.90;;
4833;SDS011;12895;51.064;7.028;2023-11-19T08:47:54;21.03;;;4.53;;
4833;SDS011;12895;51.064;7.028;2023-11-19T08:50:41;15.10;;;3.93;;
4833;SDS011;12895;51.064;7.028;2023-11-19T08:53:26;20.67;;;4.63;;
4833;SDS011;12895;51.064;7.028;2023-11-19T08:56:12;16.20;;;4.50;;
4833;SDS011;12895;51.064;7.028;2023-11-19T08:58:58;16.80;;;4.67;;
4833;SDS011;12895;51.064;7.028;2023-11-19T09:01:43;13.13;;;4.33;;
4833;SDS011;12895;51.064;7.028;2023-11-19T09:04:28;15.03;;;4.43;;
4833;SDS011;12895;51.064;7.028;2023-11-19T09:07:15;17.10;;;4.70;;
4833;SDS011;12895;51.064;7.028;2023-11-19T09:10:00;21.07;;;4.47;;
4833;SDS011;12895;51.064;7.028;2023-11-19T09:12:45;18.57;;;4.60;;
4833;SDS011;12895;51.064;7.028;2023-11-19T09:15:30;14.60;;;4.60;;
4833;SDS011;12895;51.064;7.028;2023-11-19T09:18:16;19.37;;;4.60;;
4833;SDS011;12895;51.064;7.028;2023-11-19T09:21:01;15.23;;;3.80;;
4833;SDS011;12895;51.064;7.028;2023-11-19T09:23:47;17.73;;;4.23;;
4833;SDS011;12895;51.064;7.028;2023-11-19T09:26:33;23.37;;;5.20;;
4833;SDS011;12895;51.064;7.028;2023-11-19T09:29:21;21.10;;;5.90;;
4833;SDS011;12895;51.064;7.028;2023-11-19T09:32:06;19.27;;;5.17;;
4833;SDS011;12895;51.064;7.028;2023-11-19T09:34:51;14.67;;;4.10;;
4833;SDS011;12895;51.064;7.028;2023-11-19T09:37:36;21.60;;;5.07;;
4833;SDS011;12895;51.064;7.028;2023-11-19T09:40:23;15.30;;;4.20;;
4833;SDS011;12895;51.064;7.028;2023-11-19T09:43:08;16.80;;;3.80;;
4833;SDS011;12895;51.064;7.028;2023-11-19T09:45:53;19.00;;;4.67;;
4833;SDS011;12895;51.064;7.028;2023-11-19T09:48:39;15.77;;;5.07;;
4833;SDS011;12895;51.064;7.028;2023-11-19T09:51:25;19.27;;;3.70;;
4833;SDS011;12895;51.064;7.028;2023-11-19T09:54:10;18.20;;;4.20;;
4833;SDS011;12895;51.064;7.028;2023-11-19T09:56:58;16.27;;;4.93;;
4833;SDS011;12895;51.064;7.028;2023-11-19T09:59:46;19.83;;;4.20;;
4833;SDS011;12895;51.064;7.028;2023-11-19T10:02:33;13.60;;;3.73;;
4833;SDS011;12895;51.064;7.028;2023-11-19T10:05:19;20.30;;;3.93;;
4833;SDS011;12895;51.064;7.028;2023-11-19T10:08:05;20.83;;;4.17;;
4833;SDS011;12895;51.064;7.028;2023-11-19T10:10:50;18.27;;;4.40;;
4833;SDS011;12895;51.064;7.028;2023-11-19T10:13:37;19.40;;;4.23;;
4833;SDS011;12895;51.064;7.028;2023-11-19T10:16:27;17.50;;;4.30;;
4833;SDS011;12895;51.064;7.028;2023-11-19T10:19:18;19.37;;;4.97;;
4833;SDS011;12895;51.064;7.028;2023-11-19T10:22:04;10.73;;;3.20;;
4833;SDS011;12895;51.064;7.028;2023-11-19T10:24:49;13.20;;;4.07;;
4833;SDS011;12895;51.064;7.028;2023-11-19T10:27:35;16.83;;;4.33;;
4833;SDS011;12895;51.064;7.028;2023-11-19T10:30:22;20.37;;;5.33;;
4833;SDS011;12895;51.064;7.028;2023-11-19T10:33:08;21.87;;;5.30;;
4833;SDS011;12895;51.064;7.028;2023-11-19T10:35:54;16.67;;;4.17;;
4833;SDS011;12895;51.064;7.028;2023-11-19T10:38:40;22.33;;;4.70;;
4833;SDS011;12895;51.064;7.028;2023-11-19T10:41:26;22.77;;;4.30;;
4833;SDS011;12895;51.064;7.028;2023-11-19T10:44:11;18.13;;;4.50;;
4833;SDS011;12895;51.064;7.028;2023-11-19T10:46:58;14.80;;;3.70;;
4833;SDS011;12895;51.064;7.028;2023-11-19T10:49:44;19.90;;;4.30;;
4833;SDS011;12895;51.064;7.028;2023-11-19T10:52:30;13.33;;;3.50;;
4833;SDS011;12895;51.064;7.028;2023-11-19T10:55:15;19.47;;;4.73;;
4833;SDS011;12895;51.064;7.028;2023-11-19T10:58:03;20.27;;;4.87;;
4833;SDS011;12895;51.064;7.028;2023-11-19T11:00:51;10.60;;;3.37;;
4833;SDS011;12895;51.064;7.028;2023-11-19T11:03:39;16.70;;;4.43;;
4833;SDS011;12895;51.064;7.028;2023-11-19T11:06:24;15.90;;;4.67;;
4833;SDS011;12895;51.064;7.028;2023-11-19T11:09:14;16.87;;;4.60;;
4833;SDS011;12895;51.064;7.028;2023-11-19T11:11:59;15.30;;;3.90;;
4833;SDS011;12895;51.064;7.028;2023-11-19T11:14:44;16.07;;;4.30;;
4833;SDS011;12895;51.064;7.028;2023-11-19T11:17:31;14.40;;;3.40;;
4833;SDS011;12895;51.064;7.028;2023-11-19T11:20:18;12.60;;;3.87;;
4833;SDS011;12895;51.064;7.028;2023-11-19T11:26:17;21.50;;;5.50;;
4833;SDS011;12895;51.064;7.028;2023-11-19T11:29:09;24.60;;;4.50;;
4833;SDS011;12895;51.064;7.028;2023-11-19T11:31:57;11.60;;;3.77;;
4833;SDS011;12895;51.064;7.028;2023-11-19T11:34:49;16.30;;;4.40;;
4833;SDS011;12895;51.064;7.028;2023-11-19T11:37:42;16.33;;;3.50;;
4833;SDS011;12895;51.064;7.028;2023-11-19T11:40:31;13.33;;;5.07;;
4833;SDS011;12895;51.064;7.028;2023-11-19T11:49:29;14.43;;;3.70;;
4833;SDS011;12895;51.064;7.028;2023-11-19T11:52:16;15.57;;;3.73;;
4833;SDS011;12895;51.064;7.028;2023-11-19T11:55:05;17.83;;;3.97;;
4833;SDS011;12895;51.064;7.028;2023-11-19T11:57:51;16.90;;;4.03;;
4833;SDS011;12895;51.064;7.028;2023-11-19T12:00:37;19.57;;;4.13;;
4833;SDS011;12895;51.064;7.028;2023-11-19T12:03:22;11.27;;;3.50;;
4833;SDS011;12895;51.064;7.028;2023-11-19T12:06:08;14.30;;;3.50;;
4833;SDS011;12895;51.064;7.028;2023-11-19T12:08:53;11.93;;;4.20;;
4833;SDS011;12895;51.064;7.028;2023-11-19T12:11:48;14.57;;;3.97;;
4833;SDS011;12895;51.064;7.028;2023-11-19T12:17:49;13.30;;;4.13;;
4833;SDS011;12895;51.064;7.028;2023-11-19T12:20:34;7.90;;;2.80;;
4833;SDS011;12895;51.064;7.028;2023-11-19T12:23:21;12.50;;;3.70;;
4833;SDS011;12895;51.064;7.028;2023-11-19T12:26:06;15.10;;;3.77;;
4833;SDS011;12895;51.064;7.028;2023-11-19T12:28:58;11.70;;;3.10;;
4833;SDS011;12895;51.064;7.028;2023-11-19T12:31:44;14.70;;;3.47;;
4833;SDS011;12895;51.064;7.028;2023-11-19T12:34:29;14.73;;;3.90;;
4833;SDS011;12895;51.064;7.028;2023-11-19T12:37:16;10.30;;;3.80;;
4833;SDS011;12895;51.064;7.028;2023-11-19T12:40:01;11.10;;;2.77;;
4833;SDS011;12895;51.064;7.028;2023-11-19T12:42:49;14.90;;;3.63;;
4833;SDS011;12895;51.064;7.028;2023-11-19T12:45:36;11.50;;;3.17;;
4833;SDS011;12895;51.064;7.028;2023-11-19T12:48:22;15.03;;;3.70;;
4833;SDS011;12895;51.064;7.028;2023-11-19T12:51:07;14.07;;;3.87;;
4833;SDS011;12895;51.064;7.028;2023-11-19T12:53:52;11.60;;;3.07;;
4833;SDS011;12895;51.064;7.028;2023-11-19T12:56:38;11.63;;;3.27;;
4833;SDS011;12895;51.064;7.028;2023-11-19T12:59:26;14.07;;;3.30;;
4833;SDS011;12895;51.064;7.028;2023-11-19T13:02:12;15.83;;;3.60;;
4833;SDS011;12895;51.064;7.028;2023-11-19T13:04:58;10.60;;;3.50;;
4833;SDS011;12895;51.064;7.028;2023-11-19T13:07:43;9.60;;;3.77;;
4833;SDS011;12895;51.064;7.028;2023-11-19T13:10:29;9.03;;;2.30;;
4833;SDS011;12895;51.064;7.028;2023-11-19T13:13:14;14.63;;;4.27;;
4833;SDS011;12895;51.064;7.028;2023-11-19T13:16:02;10.40;;;3.00;;
4833;SDS011;12895;51.064;7.028;2023-11-19T13:18:50;12.53;;;2.87;;
4833;SDS011;12895;51.064;7.028;2023-11-19T13:21:36;9.20;;;2.60;;
4833;SDS011;12895;51.064;7.028;2023-11-19T13:24:21;9.90;;;2.80;;
4833;SDS011;12895;51.064;7.028;2023-11-19T13:27:07;9.23;;;2.90;;
4833;SDS011;12895;51.064;7.028;2023-11-19T13:29:52;8.67;;;2.83;;
4833;SDS011;12895;51.064;7.028;2023-11-19T13:32:37;15.07;;;3.43;;
4833;SDS011;12895;51.064;7.028;2023-11-19T13:35:24;10.30;;;3.57;;
4833;SDS011;12895;51.064;7.028;2023-11-19T13:38:11;12.63;;;2.83;;
4833;SDS011;12895;51.064;7.028;2023-11-19T13:40:56;5.40;;;2.37;;
4833;SDS011;12895;51.064;7.028;2023-11-19T13:43:42;12.10;;;3.63;;
4833;SDS011;12895;51.064;7.028;2023-11-19T13:46:27;12.30;;;2.97;;
4833;SDS011;12895;51.064;7.028;2023-11-19T13:49:13;10.03;;;2.73;;
4833;SDS011;12895;51.064;7.028;2023-11-19T13:52:00;13.07;;;3.57;;
4833;SDS011;12895;51.064;7.028;2023-11-19T13:54:45;9.73;;;3.00;;
4833;SDS011;12895;51.064;7.028;2023-11-19T13:57:31;18.43;;;3.30;;
4833;SDS011;12895;51.064;7.028;2023-11-19T14:00:16;14.30;;;4.03;;
4833;SDS011;12895;51.064;7.028;2023-11-19T14:03:02;17.37;;;3.50;;
4833;SDS011;12895;51.064;7.028;2023-11-19T14:05:47;15.13;;;3.87;;
4833;SDS011;12895;51.064;7.028;2023-11-19T14:08:37;13.87;;;4.20;;
4833;SDS011;12895;51.064;7.028;2023-11-19T14:11:22;10.13;;;3.17;;
4833;SDS011;12895;51.064;7.028;2023-11-19T14:14:08;15.27;;;4.37;;
4833;SDS011;12895;51.064;7.028;2023-11-19T14:16:53;15.33;;;3.93;;
4833;SDS011;12895;51.064;7.028;2023-11-19T14:19:38;19.17;;;4.57;;
4833;SDS011;12895;51.064;7.028;2023-11-19T14:22:23;14.60;;;4.20;;
4833;SDS011;12895;51.064;7.028;2023-11-19T14:25:10;10.87;;;3.13;;
4833;SDS011;12895;51.064;7.028;2023-11-19T14:27:55;19.83;;;4.17;;
4833;SDS011;12895;51.064;7.028;2023-11-19T14:30:41;14.33;;;3.63;;
4833;SDS011;12895;51.064;7.028;2023-11-19T14:33:26;9.23;;;3.13;;
4833;SDS011;12895;51.064;7.028;2023-11-19T14:36:11;10.97;;;3.50;;
4833;SDS011;12895;51.064;7.028;2023-11-19T14:38:56;13.67;;;3.60;;
4833;SDS011;12895;51.064;7.028;2023-11-19T14:41:44;18.20;;;4.40;;
4833;SDS011;12895;51.064;7.028;2023-11-19T14:44:29;12.80;;;4.00;;
4833;SDS011;12895;51.064;7.028;2023-11-19T14:47:14;10.43;;;3.50;;
4833;SDS011;12895;51.064;7.028;2023-11-19T14:49:59;9.27;;;3.27;;
4833;SDS011;12895;51.064;7.028;2023-11-19T14:52:45;8.23;;;2.73;;
4833;SDS011;12895;51.064;7.028;2023-11-19T14:55:31;9.40;;;3.30;;
4833;SDS011;12895;51.064;7.028;2023-11-19T14:58:18;11.60;;;3.20;;
4833;SDS011;12895;51.064;7.028;2023-11-19T15:01:03;10.83;;;3.10;;
4833;SDS011;12895;51.064;7.028;2023-11-19T15:03:49;9.03;;;3.30;;
4833;SDS011;12895;51.064;7.028;2023-11-19T15:06:34;8.10;;;3.10;;
4833;SDS011;12895;51.064;7.028;2023-11-19T15:09:20;14.77;;;3.17;;
4833;SDS011;12895;51.064;7.028;2023-11-19T15:12:05;12.70;;;2.90;;
4833;SDS011;12895;51.064;7.028;2023-11-19T15:14:52;12.07;;;2.67;;
4833;SDS011;12895;51.064;7.028;2023-11-19T15:17:37;8.73;;;2.60;;
4833;SDS011;12895;51.064;7.028;2023-11-19T15:20:22;14.77;;;4.07;;
4833;SDS011;12895;51.064;7.028;2023-11-19T15:23:07;7.97;;;2.37;;
4833;SDS011;12895;51.064;7.028;2023-11-19T15:25:53;12.17;;;3.60;;
4833;SDS011;12895;51.064;7.028;2023-11-19T15:28:39;12.53;;;2.77;;
4833;SDS011;12895;51.064;7.028;2023-11-19T15:31:25;11.30;;;3.60;;
4833;SDS011;12895;51.064;7.028;2023-11-19T15:34:11;10.77;;;2.93;;
4833;SDS011;12895;51.064;7.028;2023-11-19T15:36:56;11.60;;;3.83;;
4833;SDS011;12895;51.064;7.028;2023-11-19T15:39:41;14.60;;;2.90;;
4833;SDS011;12895;51.064;7.028;2023-11-19T15:42:26;11.33;;;3.67;;
4833;SDS011;12895;51.064;7.028;2023-11-19T15:45:12;10.03;;;2.70;;
4833;SDS011;12895;51.064;7.028;2023-11-19T15:47:58;14.00;;;4.00;;
4833;SDS011;12895;51.064;7.028;2023-11-19T15:50:44;10.20;;;3.53;;
4833;SDS011;12895;51.064;7.028;2023-11-19T15:53:31;10.30;;;3.13;;
4833;SDS011;12895;51.064;7.028;2023-11-19T15:56:19;22.47;;;3.57;;
4833;SDS011;12895;51.064;7.028;2023-11-19T15:59:05;13.20;;;3.07;;
4833;SDS011;12895;51.064;7.028;2023-11-19T16:01:54;10.60;;;3.47;;
4833;SDS011;12895;51.064;7.028;2023-11-19T16:04:44;11.70;;;3.37;;
4833;SDS011;12895;51.064;7.028;2023-11-19T16:07:31;12.93;;;3.53;;
4833;SDS011;12895;51.064;7.028;2023-11-19T16:10:19;13.93;;;3.67;;
4833;SDS011;12895;51.064;7.028;2023-11-19T16:13:04;14.63;;;3.20;;
4833;SDS011;12895;51.064;7.028;2023-11-19T16:15:51;14.37;;;3.40;;
4833;SDS011;12895;51.064;7.028;2023-11-19T16:18:38;10.03;;;3.43;;
4833;SDS011;12895;51.064;7.028;2023-11-19T16:21:26;17.47;;;3.83;;
4833;SDS011;12895;51.064;7.028;2023-11-19T16:24:11;18.83;;;4.10;;
4833;SDS011;12895;51.064;7.028;2023-11-19T16:27:02;8.67;;;3.17;;
4833;SDS011;12895;51.064;7.028;2023-11-19T16:29:47;13.10;;;3.53;;
4833;SDS011;12895;51.064;7.028;2023-11-19T16:32:33;16.10;;;4.10;;
4833;SDS011;12895;51.064;7.028;2023-11-19T16:35:18;17.70;;;4.27;;
4833;SDS011;12895;51.064;7.028;2023-11-19T16:38:05;9.57;;;3.20;;
4833;SDS011;12895;51.064;7.028;2023-11-19T16:40:50;17.93;;;4.20;;
4833;SDS011;12895;51.064;7.028;2023-11-19T16:43:36;16.10;;;4.87;;
4833;SDS011;12895;51.064;7.028;2023-11-19T16:46:21;19.63;;;4.40;;
4833;SDS011;12895;51.064;7.028;2023-11-19T16:49:08;19.13;;;8.07;;
4833;SDS011;12895;51.064;7.028;2023-11-19T16:51:53;14.27;;;4.30;;
4833;SDS011;12895;51.064;7.028;2023-11-19T16:54:39;13.60;;;4.10;;
4833;SDS011;12895;51.064;7.028;2023-11-19T16:57:27;18.97;;;4.27;;
4833;SDS011;12895;51.064;7.028;2023-11-19T17:00:13;10.10;;;3.50;;